Time;durP1;ratioP1;P1;durP2;ratioP2;P2;SDS_P1;SDS_P2;PMS_P1;PMS_P2;Temp;Humidity;BMP_temperature;BMP_pressure;BME280_temperature;BME280_humidity;BME280_pressure;Samples;Min_cycle;Max_cycle;Signal;HPM_P1;HPM_P2
2022/06/04 00:01:36;;;;;;;8.18;7.00;;;;;;;;;;6322503;28;20043;-81
2022/06/04 00:04:38;;;;;;;8.30;7.57;;;;;;;;;;6344356;27;20045;-82
2022/06/04 00:07:44;;;;;;;9.35;8.18;;;;;;;;;;6331067;28;20512;-81
2022/06/04 00:17:29;;;;;;;11.48;8.77;;;;;;;;;;6340399;28;20055;-81
2022/06/04 00:20:31;;;;;;;9.50;8.45;;;;;;;;;;6325096;28;20047;-82
2022/06/04 00:23:32;;;;;;;9.73;8.70;;;;;;;;;;6327891;28;20050;-81
2022/06/04 00:26:34;;;;;;;8.82;7.80;;;;;;;;;;6342591;28;20039;-80
2022/06/04 00:29:36;;;;;;;10.20;8.45;;;;;;;;;;6334582;27;20062;-79
2022/06/04 00:32:37;;;;;;;8.85;8.02;;;;;;;;;;6326092;28;20421;-81
2022/06/04 00:35:40;;;;;;;8.98;8.07;;;;;;;;;;6326046;28;20388;-81
2022/06/04 00:38:41;;;;;;;9.25;8.23;;;;;;;;;;6325211;28;20067;-80
2022/06/04 00:42:11;;;;;;;8.25;7.45;;;;;;;;;;6325778;28;20126;-81
2022/06/04 00:45:21;;;;;;;8.00;7.32;;;;;;;;;;6335456;27;20047;-81
2022/06/04 00:48:23;;;;;;;8.45;7.68;;;;;;;;;;6331011;28;20527;-78
2022/06/04 00:51:26;;;;;;;8.50;7.60;;;;;;;;;;6338038;27;20058;-79
2022/06/04 00:54:28;;;;;;;8.82;7.93;;;;;;;;;;6344202;28;20097;-80
2022/06/04 00:57:45;;;;;;;7.97;7.28;;;;;;;;;;6342204;28;20131;-80
2022/06/04 01:00:55;;;;;;;8.98;8.07;;;;;;;;;;6316934;28;20123;-81
2022/06/04 01:04:02;;;;;;;8.95;8.05;;;;;;;;;;6341659;28;20122;-81
2022/06/04 01:07:30;;;;;;;10.45;8.10;;;;;;;;;;6341370;27;20046;-80
2022/06/04 01:11:03;;;;;;;10.60;7.68;;;;;;;;;;6325975;28;20104;-81
2022/06/04 01:14:12;;;;;;;8.60;7.70;;;;;;;;;;6323679;28;20143;-81
2022/06/04 01:17:29;;;;;;;9.88;7.45;;;;;;;;;;6339067;28;20037;-83
2022/06/04 01:20:49;;;;;;;12.27;8.93;;;;;;;;;;6307799;28;20054;-78
2022/06/04 01:23:56;;;;;;;9.60;8.60;;;;;;;;;;6344996;28;20512;-81
2022/06/04 01:27:12;;;;;;;9.60;8.60;;;;;;;;;;6326840;28;20062;-80
2022/06/04 01:30:20;;;;;;;9.52;8.48;;;;;;;;;;6341149;27;20396;-82
2022/06/04 01:33:29;;;;;;;9.73;8.57;;;;;;;;;;6330682;28;20130;-81
2022/06/04 01:36:41;;;;;;;10.23;9.13;;;;;;;;;;6332979;28;20134;-83
2022/06/04 01:43:12;;;;;;;9.07;8.00;;;;;;;;;;6341242;28;20055;-80
2022/06/04 01:46:22;;;;;;;10.02;8.38;;;;;;;;;;6338444;28;20047;-81
2022/06/04 01:49:33;;;;;;;9.15;8.27;;;;;;;;;;6347155;27;20059;-82
2022/06/04 01:52:37;;;;;;;9.55;8.48;;;;;;;;;;6350298;27;20043;-83
2022/06/04 01:55:49;;;;;;;11.02;8.30;;;;;;;;;;6342449;28;20039;-80
2022/06/04 01:59:19;;;;;;;9.18;8.30;;;;;;;;;;6347438;27;20043;-80
2022/06/04 02:02:35;;;;;;;10.27;8.57;;;;;;;;;;6333411;28;20047;-82
2022/06/04 02:05:43;;;;;;;11.57;8.90;;;;;;;;;;6336526;28;20069;-82
2022/06/04 02:09:06;;;;;;;10.38;9.23;;;;;;;;;;6326168;28;20039;-83
2022/06/04 02:12:10;;;;;;;10.52;9.10;;;;;;;;;;6341696;28;20067;-80
2022/06/04 02:15:18;;;;;;;10.30;9.30;;;;;;;;;;6342013;28;20051;-82
2022/06/04 02:18:20;;;;;;;10.02;8.35;;;;;;;;;;6343890;27;20058;-82
2022/06/04 02:21:23;;;;;;;9.23;8.23;;;;;;;;;;6332147;27;20047;-82
2022/06/04 02:24:24;;;;;;;10.23;9.02;;;;;;;;;;6343471;27;20054;-82
2022/06/04 02:27:27;;;;;;;9.27;8.30;;;;;;;;;;6324903;28;20321;-82
2022/06/04 02:30:47;;;;;;;9.82;8.40;;;;;;;;;;6337657;28;20040;-81
2022/06/04 02:33:57;;;;;;;10.38;9.07;;;;;;;;;;6342448;28;20096;-83
2022/06/04 02:37:04;;;;;;;11.27;8.93;;;;;;;;;;6324069;28;20063;-81
2022/06/04 02:40:10;;;;;;;11.38;9.23;;;;;;;;;;6340178;28;20075;-81
2022/06/04 02:43:19;;;;;;;10.85;9.23;;;;;;;;;;6340417;28;20043;-79
2022/06/04 02:46:40;;;;;;;10.18;9.18;;;;;;;;;;6339034;28;20224;-82
2022/06/04 02:49:51;;;;;;;10.98;9.88;;;;;;;;;;6321081;28;20047;-79
2022/06/04 02:52:55;;;;;;;10.05;9.07;;;;;;;;;;6340162;28;20050;-79
2022/06/04 02:56:01;;;;;;;12.10;9.20;;;;;;;;;;6345774;28;20108;-81
2022/06/04 02:59:06;;;;;;;10.55;9.13;;;;;;;;;;6320972;28;20118;-80
2022/06/04 03:02:11;;;;;;;10.48;9.38;;;;;;;;;;6316932;28;20044;-79
2022/06/04 03:05:23;;;;;;;10.82;8.57;;;;;;;;;;6338089;28;20047;-81
2022/06/04 03:08:31;;;;;;;10.85;9.60;;;;;;;;;;6340730;28;20063;-80
2022/06/04 03:11:43;;;;;;;11.63;9.60;;;;;;;;;;6339172;28;20043;-80
2022/06/04 03:14:44;;;;;;;10.90;9.10;;;;;;;;;;6330394;28;20058;-80
2022/06/04 03:17:47;;;;;;;10.60;9.50;;;;;;;;;;6337918;28;20441;-79
2022/06/04 03:20:48;;;;;;;10.27;9.10;;;;;;;;;;6332739;28;20086;-80
2022/06/04 03:23:50;;;;;;;11.18;9.50;;;;;;;;;;6337932;28;21397;-80
2022/06/04 03:26:52;;;;;;;10.57;9.48;;;;;;;;;;6338002;28;20168;-80
2022/06/04 03:29:54;;;;;;;10.80;9.70;;;;;;;;;;6342866;28;20153;-81
2022/06/04 03:32:55;;;;;;;12.63;9.95;;;;;;;;;;6319131;28;20100;-80
2022/06/04 03:35:57;;;;;;;10.25;9.18;;;;;;;;;;6335043;28;20116;-78
2022/06/04 03:39:00;;;;;;;12.43;9.52;;;;;;;;;;6341149;28;20044;-79
2022/06/04 03:42:03;;;;;;;11.30;9.50;;;;;;;;;;6333948;28;20044;-81
2022/06/04 03:45:06;;;;;;;10.82;9.73;;;;;;;;;;6341480;27;20044;-81
2022/06/04 03:48:08;;;;;;;11.38;9.70;;;;;;;;;;6339207;28;20047;-80
2022/06/04 03:51:10;;;;;;;10.35;8.85;;;;;;;;;;6327368;27;20047;-81
2022/06/04 03:54:12;;;;;;;12.95;9.40;;;;;;;;;;6327101;27;20055;-79
2022/06/04 04:00:41;;;;;;;10.48;9.35;;;;;;;;;;6352446;27;20105;-81
2022/06/04 04:03:44;;;;;;;10.82;9.18;;;;;;;;;;6355315;27;20039;-81
2022/06/04 04:06:45;;;;;;;12.45;9.77;;;;;;;;;;6345876;27;20047;-80
2022/06/04 04:09:47;;;;;;;10.98;9.48;;;;;;;;;;6339036;28;20048;-81
2022/06/04 04:12:49;;;;;;;11.63;9.90;;;;;;;;;;6345568;27;20071;-80
2022/06/04 04:15:51;;;;;;;10.93;9.63;;;;;;;;;;6327253;27;20095;-81
2022/06/04 04:18:52;;;;;;;11.63;10.02;;;;;;;;;;6349122;27;20044;-80
2022/06/04 04:21:54;;;;;;;13.05;10.70;;;;;;;;;;6347611;27;20108;-80
2022/06/04 04:24:56;;;;;;;12.60;10.23;;;;;;;;;;6351253;27;20100;-79
2022/06/04 04:27:58;;;;;;;11.50;10.30;;;;;;;;;;6343878;27;20500;-79
2022/06/04 04:31:00;;;;;;;12.80;9.77;;;;;;;;;;6331463;28;20101;-80
2022/06/04 04:34:02;;;;;;;14.45;10.15;;;;;;;;;;6332921;27;20043;-80
2022/06/04 04:37:04;;;;;;;11.57;10.00;;;;;;;;;;6325911;27;20051;-80
2022/06/04 04:40:06;;;;;;;11.48;10.30;;;;;;;;;;6347299;27;20128;-81
2022/06/04 04:43:08;;;;;;;10.82;9.45;;;;;;;;;;6349033;27;20039;-80
2022/06/04 04:46:12;;;;;;;11.23;9.90;;;;;;;;;;6344783;27;20077;-81
2022/06/04 04:49:13;;;;;;;12.48;9.82;;;;;;;;;;6341066;27;20043;-79
2022/06/04 04:52:15;;;;;;;11.88;10.32;;;;;;;;;;6340908;27;20123;-81
2022/06/04 04:55:16;;;;;;;13.10;10.30;;;;;;;;;;6344024;28;20504;-81
2022/06/04 04:58:18;;;;;;;11.05;9.80;;;;;;;;;;6358923;27;20099;-80
2022/06/04 05:01:23;;;;;;;13.23;9.50;;;;;;;;;;6338420;27;20044;-80
2022/06/04 05:04:25;;;;;;;10.32;9.30;;;;;;;;;;6339898;28;20051;-80
2022/06/04 05:07:27;;;;;;;10.65;9.02;;;;;;;;;;6339416;28;20107;-80
2022/06/04 05:10:29;;;;;;;10.33;9.23;;;;;;;;;;6334848;28;21031;-79
2022/06/04 05:13:31;;;;;;;10.27;9.18;;;;;;;;;;6338200;27;20170;-79
2022/06/04 05:16:35;;;;;;;10.27;9.05;;;;;;;;;;6349776;27;20051;-78
2022/06/04 05:19:37;;;;;;;9.85;8.85;;;;;;;;;;6347093;27;20074;-80
2022/06/04 05:22:39;;;;;;;12.35;9.70;;;;;;;;;;6345915;27;20107;-80
2022/06/04 05:25:41;;;;;;;10.18;9.02;;;;;;;;;;6325269;27;20042;-80
2022/06/04 05:28:43;;;;;;;10.95;9.02;;;;;;;;;;6344903;27;20040;-79
2022/06/04 05:31:45;;;;;;;11.98;9.38;;;;;;;;;;6327376;27;20047;-80
2022/06/04 05:34:47;;;;;;;10.15;9.23;;;;;;;;;;6342790;27;20043;-80
2022/06/04 05:37:49;;;;;;;10.13;8.15;;;;;;;;;;6345786;27;20165;-80
2022/06/04 05:41:00;;;;;;;8.87;7.97;;;;;;;;;;6340646;27;20129;-80
2022/06/04 05:44:03;;;;;;;9.23;8.27;;;;;;;;;;6342897;27;20181;-80
2022/06/04 05:47:04;;;;;;;9.27;8.30;;;;;;;;;;6348908;27;20043;-80
2022/06/04 05:50:06;;;;;;;11.38;8.15;;;;;;;;;;6346664;27;20560;-80
2022/06/04 05:53:08;;;;;;;10.38;8.00;;;;;;;;;;6346074;27;20113;-80
2022/06/04 05:56:12;;;;;;;8.63;7.82;;;;;;;;;;6321901;27;20097;-80
2022/06/04 05:59:16;;;;;;;8.90;7.97;;;;;;;;;;6338914;27;20151;-82
2022/06/04 06:02:18;;;;;;;9.45;8.38;;;;;;;;;;6340839;28;20122;-80
2022/06/04 06:05:20;;;;;;;8.98;8.18;;;;;;;;;;6345943;27;20044;-79
2022/06/04 06:08:22;;;;;;;9.35;8.43;;;;;;;;;;6344260;28;20052;-80
2022/06/04 06:11:24;;;;;;;9.70;8.13;;;;;;;;;;6341534;28;20116;-79
2022/06/04 06:14:25;;;;;;;9.15;8.20;;;;;;;;;;6341335;28;20126;-79
2022/06/04 06:17:27;;;;;;;8.23;7.13;;;;;;;;;;6344653;27;20047;-79
2022/06/04 06:20:29;;;;;;;7.68;6.97;;;;;;;;;;6340807;27;20126;-78
2022/06/04 06:23:31;;;;;;;7.90;7.10;;;;;;;;;;6320756;28;20043;-80
2022/06/04 06:26:34;;;;;;;7.68;6.95;;;;;;;;;;6320998;28;20051;-79
2022/06/04 06:29:38;;;;;;;7.47;6.78;;;;;;;;;;6343401;27;20521;-80
2022/06/04 06:32:42;;;;;;;7.00;6.35;;;;;;;;;;6339905;28;20040;-80
2022/06/04 06:35:44;;;;;;;7.40;6.70;;;;;;;;;;6340271;27;20043;-81
2022/06/04 06:38:47;;;;;;;7.75;6.85;;;;;;;;;;6341721;28;20042;-78
2022/06/04 06:41:49;;;;;;;;;;;;;;;;;;6316914;28;20119;-80
2022/06/04 06:44:52;;;;;;;7.53;6.32;;;;;;;;;;6344272;27;20648;-82
2022/06/04 06:47:54;;;;;;;6.85;6.15;;;;;;;;;;6349698;27;20176;-80
2022/06/04 06:50:56;;;;;;;6.43;5.82;;;;;;;;;;6347293;27;20151;-82
2022/06/04 06:53:57;;;;;;;6.32;5.72;;;;;;;;;;6341117;28;20043;-81
2022/06/04 06:57:01;;;;;;;7.18;6.47;;;;;;;;;;6342005;28;20116;-80
2022/06/04 07:00:04;;;;;;;7.03;6.32;;;;;;;;;;6330003;28;20188;-79
2022/06/04 07:03:05;;;;;;;8.13;5.45;;;;;;;;;;6338996;28;20063;-79
2022/06/04 07:06:10;;;;;;;6.72;6.00;;;;;;;;;;6324558;28;20075;-79
2022/06/04 07:09:21;;;;;;;6.18;5.57;;;;;;;;;;6341523;28;20119;-80
2022/06/04 07:12:22;;;;;;;5.68;5.20;;;;;;;;;;6314672;28;20074;-81
2022/06/04 07:15:24;;;;;;;5.80;5.15;;;;;;;;;;6337652;28;20097;-81
2022/06/04 07:18:26;;;;;;;5.10;4.50;;;;;;;;;;6335353;28;20989;-81
2022/06/04 07:21:28;;;;;;;5.10;4.60;;;;;;;;;;6347779;27;20067;-81
2022/06/04 07:24:30;;;;;;;5.53;4.68;;;;;;;;;;6339301;28;20369;-81
2022/06/04 07:27:32;;;;;;;5.23;4.73;;;;;;;;;;6347849;28;20387;-80
2022/06/04 07:30:34;;;;;;;5.00;4.60;;;;;;;;;;6346110;28;20512;-79
2022/06/04 07:33:36;;;;;;;5.13;4.60;;;;;;;;;;6349034;28;20043;-82
2022/06/04 07:36:41;;;;;;;7.30;5.03;;;;;;;;;;6331983;28;20103;-79
2022/06/04 07:39:43;;;;;;;5.10;4.63;;;;;;;;;;6357964;27;20054;-78
2022/06/04 07:42:52;;;;;;;5.00;4.60;;;;;;;;;;6350018;27;20077;-80
2022/06/04 07:45:53;;;;;;;5.18;4.78;;;;;;;;;;6357105;27;20043;-79
2022/06/04 07:49:01;;;;;;;4.80;4.40;;;;;;;;;;6352893;27;20039;-78
2022/06/04 07:52:03;;;;;;;5.63;4.40;;;;;;;;;;6351051;27;20036;-79
2022/06/04 07:55:07;;;;;;;4.93;4.53;;;;;;;;;;6348337;27;20131;-81
2022/06/04 07:58:09;;;;;;;4.43;4.10;;;;;;;;;;6340953;27;20129;-79
2022/06/04 08:01:16;;;;;;;4.70;4.35;;;;;;;;;;6354451;27;20067;-81
2022/06/04 08:04:18;;;;;;;5.30;4.80;;;;;;;;;;6355497;27;20044;-80
2022/06/04 08:07:24;;;;;;;5.05;4.55;;;;;;;;;;6350394;28;20052;-81
2022/06/04 08:10:25;;;;;;;5.03;4.63;;;;;;;;;;6352313;28;20063;-79
2022/06/04 08:13:30;;;;;;;4.88;4.47;;;;;;;;;;6358108;28;20128;-79
2022/06/04 08:16:44;;;;;;;4.93;4.45;;;;;;;;;;6359264;28;20436;-81
2022/06/04 08:19:45;;;;;;;4.95;4.40;;;;;;;;;;6355947;28;20047;-79
2022/06/04 08:22:54;;;;;;;5.20;4.70;;;;;;;;;;6353911;28;20051;-80
2022/06/04 08:25:56;;;;;;;4.68;4.15;;;;;;;;;;6340867;28;20043;-80
2022/06/04 08:28:57;;;;;;;5.47;4.20;;;;;;;;;;6351682;28;20067;-81
2022/06/04 08:32:00;;;;;;;5.47;4.45;;;;;;;;;;6358036;28;20466;-80
2022/06/04 08:35:02;;;;;;;5.10;4.68;;;;;;;;;;6352233;28;20100;-80
2022/06/04 08:38:04;;;;;;;4.93;4.53;;;;;;;;;;6330618;28;20490;-81
2022/06/04 08:41:17;;;;;;;6.22;4.50;;;;;;;;;;6348749;28;20142;-81
2022/06/04 08:44:23;;;;;;;9.88;5.43;;;;;;;;;;6364008;28;20076;-80
2022/06/04 08:47:38;;;;;;;7.97;4.80;;;;;;;;;;6339141;28;20127;-81
2022/06/04 08:50:40;;;;;;;4.72;4.30;;;;;;;;;;6355152;28;20379;-80
2022/06/04 08:53:41;;;;;;;4.95;4.20;;;;;;;;;;6348435;28;20056;-81
2022/06/04 09:00:06;;;;;;;4.50;4.10;;;;;;;;;;6345362;28;20257;-82
2022/06/04 09:06:50;;;;;;;4.38;4.07;;;;;;;;;;6256031;27;20596;-81
2022/06/04 09:10:15;;;;;;;4.82;4.43;;;;;;;;;;6233428;28;20084;-80
2022/06/04 09:13:19;;;;;;;4.72;4.30;;;;;;;;;;6231121;28;20049;-81
2022/06/04 09:16:28;;;;;;;4.93;4.40;;;;;;;;;;6231780;28;20054;-81
2022/06/04 09:19:35;;;;;;;4.45;4.15;;;;;;;;;;6207810;28;20052;-82
2022/06/04 09:22:41;;;;;;;4.20;3.90;;;;;;;;;;6216988;28;20042;-83
2022/06/04 09:25:47;;;;;;;16.33;5.85;;;;;;;;;;6236887;28;20050;-83
2022/06/04 09:29:05;;;;;;;4.57;4.18;;;;;;;;;;6228982;28;20735;-83
2022/06/04 09:32:22;;;;;;;4.72;4.22;;;;;;;;;;6236160;28;20594;-82
2022/06/04 09:35:31;;;;;;;4.40;4.00;;;;;;;;;;6205514;28;20051;-82
2022/06/04 09:38:33;;;;;;;4.60;4.30;;;;;;;;;;6202551;28;20125;-81
2022/06/04 09:41:34;;;;;;;4.40;4.10;;;;;;;;;;6203510;28;20461;-82
2022/06/04 09:44:48;;;;;;;5.00;4.50;;;;;;;;;;6196908;28;20081;-82
2022/06/04 09:47:54;;;;;;;4.47;4.07;;;;;;;;;;6217666;28;20046;-81
2022/06/04 09:51:00;;;;;;;4.60;4.20;;;;;;;;;;6224298;28;20069;-81
2022/06/04 09:54:05;;;;;;;5.68;4.40;;;;;;;;;;6205026;28;20074;-82
2022/06/04 09:57:08;;;;;;;4.40;4.00;;;;;;;;;;6235300;28;20045;-81
2022/06/04 10:00:22;;;;;;;5.03;4.60;;;;;;;;;;6228796;28;20085;-80
2022/06/04 10:03:24;;;;;;;4.88;4.47;;;;;;;;;;6214127;28;20038;-82
2022/06/04 10:06:28;;;;;;;4.78;4.28;;;;;;;;;;6221310;28;20042;-81
2022/06/04 10:16:26;;;;;;;4.63;4.28;;;;;;;;;;6217285;28;20133;-83
2022/06/04 10:19:30;;;;;;;4.75;4.35;;;;;;;;;;6203184;28;20081;-81
2022/06/04 10:22:32;;;;;;;4.95;4.55;;;;;;;;;;6188638;28;20155;-81
2022/06/04 10:25:51;;;;;;;6.27;4.50;;;;;;;;;;6170055;28;20058;-82
2022/06/04 10:29:04;;;;;;;4.47;4.18;;;;;;;;;;6197724;28;20526;-81
2022/06/04 10:32:40;;;;;;;5.03;4.50;;;;;;;;;;6207788;28;20038;-81
2022/06/04 10:36:29;;;;;;;4.80;4.40;;;;;;;;;;6204568;28;20046;-82
2022/06/04 10:39:55;;;;;;;5.35;4.45;;;;;;;;;;6203007;28;20050;-82
2022/06/04 10:43:05;;;;;;;4.50;4.20;;;;;;;;;;6200208;28;20141;-82
2022/06/04 10:46:20;;;;;;;5.15;4.60;;;;;;;;;;6174937;28;20501;-81
2022/06/04 10:49:51;;;;;;;5.13;4.65;;;;;;;;;;6207421;28;20533;-82
2022/06/04 10:53:20;;;;;;;5.20;4.43;;;;;;;;;;6203232;28;20072;-82
2022/06/04 10:56:48;;;;;;;4.95;4.55;;;;;;;;;;6198891;28;20053;-81
2022/06/04 11:00:11;;;;;;;4.85;4.40;;;;;;;;;;6200600;28;20121;-81
2022/06/04 11:03:17;;;;;;;;;;;;;;;;;;6202767;28;20042;-81
2022/06/04 11:06:28;;;;;;;4.78;4.28;;;;;;;;;;6197771;28;20005;-80
2022/06/04 11:09:36;;;;;;;4.68;4.38;;;;;;;;;;6176204;28;20831;-80
2022/06/04 11:12:49;;;;;;;4.47;3.83;;;;;;;;;;6212288;28;20065;-81
2022/06/04 11:16:00;;;;;;;4.70;4.30;;;;;;;;;;6204823;28;20132;-81
2022/06/04 11:19:15;;;;;;;4.82;3.95;;;;;;;;;;6207837;28;20072;-80
2022/06/04 11:22:26;;;;;;;4.82;4.28;;;;;;;;;;6212737;28;20046;-81
2022/06/04 11:25:32;;;;;;;4.50;4.10;;;;;;;;;;6196582;28;20058;-80
2022/06/04 11:28:37;;;;;;;4.80;4.20;;;;;;;;;;6198187;28;20058;-80
2022/06/04 11:32:07;;;;;;;4.80;4.40;;;;;;;;;;6207755;28;20066;-81
2022/06/04 11:35:17;;;;;;;4.10;3.78;;;;;;;;;;6201949;28;20042;-80
2022/06/04 11:38:19;;;;;;;4.93;4.43;;;;;;;;;;6204822;28;20174;-81
2022/06/04 11:41:28;;;;;;;5.83;4.60;;;;;;;;;;6209896;28;20332;-81
2022/06/04 11:44:59;;;;;;;4.15;3.75;;;;;;;;;;6202863;28;20088;-81
2022/06/04 11:48:07;;;;;;;3.95;3.55;;;;;;;;;;6202964;28;20325;-80
2022/06/04 11:51:24;;;;;;;4.72;3.75;;;;;;;;;;6176742;28;20062;-79
2022/06/04 11:54:54;;;;;;;4.30;4.00;;;;;;;;;;6201400;28;20038;-81
2022/06/04 11:58:11;;;;;;;4.13;3.75;;;;;;;;;;6210471;28;20050;-80
2022/06/04 12:01:18;;;;;;;4.10;3.80;;;;;;;;;;6183800;28;20348;-81
2022/06/04 12:04:40;;;;;;;5.47;3.90;;;;;;;;;;6209345;28;20129;-79
2022/06/04 12:07:47;;;;;;;4.30;4.00;;;;;;;;;;6198151;28;20069;-81
2022/06/04 12:11:26;;;;;;;4.93;3.92;;;;;;;;;;6209816;28;20057;-79
2022/06/04 12:14:40;;;;;;;4.28;3.97;;;;;;;;;;6203538;28;20121;-82
2022/06/04 12:17:52;;;;;;;4.63;4.32;;;;;;;;;;6195407;28;20038;-81
2022/06/04 12:24:27;;;;;;;5.45;4.55;;;;;;;;;;6196303;28;19925;-82
2022/06/04 12:27:30;;;;;;;5.80;4.60;;;;;;;;;;6193864;28;20331;-81
2022/06/04 12:30:43;;;;;;;4.93;4.53;;;;;;;;;;6195372;28;20046;-81
2022/06/04 12:33:51;;;;;;;4.78;4.43;;;;;;;;;;6190983;28;20081;-81
2022/06/04 12:36:54;;;;;;;4.90;4.50;;;;;;;;;;6193480;28;20125;-80
2022/06/04 12:39:59;;;;;;;4.97;4.57;;;;;;;;;;6176115;28;20520;-82
2022/06/04 12:43:18;;;;;;;6.38;4.80;;;;;;;;;;6177055;28;20411;-81
2022/06/04 12:46:23;;;;;;;8.88;5.38;;;;;;;;;;6181898;28;20836;-83
2022/06/04 12:49:42;;;;;;;5.43;5.03;;;;;;;;;;6194381;28;20368;-83
2022/06/04 12:52:50;;;;;;;5.20;4.80;;;;;;;;;;6201223;28;20077;-83
2022/06/04 12:55:57;;;;;;;5.70;5.18;;;;;;;;;;6218697;28;20046;-81
2022/06/04 12:59:03;;;;;;;5.50;5.00;;;;;;;;;;6218276;28;20102;-82
2022/06/04 13:02:32;;;;;;;5.10;4.70;;;;;;;;;;6195516;28;20046;-83
2022/06/04 13:05:36;;;;;;;5.63;5.13;;;;;;;;;;6179501;28;20053;-82
2022/06/04 13:08:51;;;;;;;4.90;4.50;;;;;;;;;;6204269;28;20046;-80
2022/06/04 13:12:16;;;;;;;5.38;4.85;;;;;;;;;;6198543;28;20592;-82
2022/06/04 13:15:35;;;;;;;4.65;4.22;;;;;;;;;;6201760;28;20043;-83
2022/06/04 13:18:38;;;;;;;4.72;4.30;;;;;;;;;;6180334;28;20059;-81
2022/06/04 13:21:45;;;;;;;4.53;4.13;;;;;;;;;;6179092;28;20426;-82
2022/06/04 13:24:47;;;;;;;4.25;3.85;;;;;;;;;;6204912;28;20051;-82
2022/06/04 13:27:53;;;;;;;3.97;3.70;;;;;;;;;;6198951;28;20042;-81
2022/06/04 13:30:55;;;;;;;5.45;4.10;;;;;;;;;;6179829;28;20110;-82
2022/06/04 13:34:14;;;;;;;4.20;3.90;;;;;;;;;;6178448;28;20042;-83
2022/06/04 13:37:23;;;;;;;4.05;3.75;;;;;;;;;;6206274;28;20543;-82
2022/06/04 13:40:31;;;;;;;4.00;3.70;;;;;;;;;;6199007;28;20046;-82
2022/06/04 13:43:44;;;;;;;3.65;3.45;;;;;;;;;;6197156;28;20094;-83
2022/06/04 13:46:46;;;;;;;4.10;3.67;;;;;;;;;;6206832;28;20433;-82
2022/06/04 13:50:06;;;;;;;4.40;4.00;;;;;;;;;;6180707;28;20047;-81
2022/06/04 13:53:16;;;;;;;4.10;3.70;;;;;;;;;;6202363;28;20050;-81
2022/06/04 13:56:18;;;;;;;3.80;3.50;;;;;;;;;;6204728;28;20058;-81
2022/06/04 13:59:43;;;;;;;4.97;3.45;;;;;;;;;;6208306;28;20050;-81
2022/06/04 14:02:48;;;;;;;4.25;3.90;;;;;;;;;;6213543;28;20145;-83
2022/06/04 14:05:54;;;;;;;3.63;3.33;;;;;;;;;;6209830;28;20046;-81
2022/06/04 14:09:01;;;;;;;3.25;3.03;;;;;;;;;;6173217;28;20215;-82
2022/06/04 14:12:20;;;;;;;3.50;3.20;;;;;;;;;;6169873;28;20054;-83
2022/06/04 14:15:32;;;;;;;4.20;3.90;;;;;;;;;;6198251;28;20132;-83
2022/06/04 14:19:07;;;;;;;4.50;4.00;;;;;;;;;;6188828;28;20069;-82
2022/06/04 14:22:29;;;;;;;3.92;3.63;;;;;;;;;;6205628;28;20042;-83
2022/06/04 14:26:09;;;;;;;4.95;3.47;;;;;;;;;;6210389;28;20115;-84
2022/06/04 14:29:40;;;;;;;4.00;3.80;;;;;;;;;;6198044;28;20070;-83
2022/06/04 14:32:48;;;;;;;4.80;4.40;;;;;;;;;;6191646;28;20042;-82
2022/06/04 14:35:58;;;;;;;;;;;;;;;;;;6204518;28;20080;-81
2022/06/04 14:39:01;;;;;;;5.88;4.00;;;;;;;;;;6216795;28;19921;-83
2022/06/04 14:42:28;;;;;;;4.28;3.88;;;;;;;;;;6204584;28;20042;-80
2022/06/04 14:45:36;;;;;;;4.15;3.85;;;;;;;;;;6166174;28;20051;-81
2022/06/04 14:48:49;;;;;;;4.57;3.95;;;;;;;;;;6208538;28;20181;-82
2022/06/04 14:52:28;;;;;;;4.10;3.80;;;;;;;;;;6201335;28;20043;-82
2022/06/04 14:55:49;;;;;;;4.93;3.83;;;;;;;;;;6202892;28;20045;-81
2022/06/04 14:59:20;;;;;;;3.88;3.50;;;;;;;;;;6216629;28;21009;-82
2022/06/04 15:02:29;;;;;;;4.05;3.50;;;;;;;;;;6218940;28;20108;-82
2022/06/04 15:05:47;;;;;;;4.10;3.70;;;;;;;;;;6176587;28;20120;-83
2022/06/04 15:09:10;;;;;;;3.63;3.42;;;;;;;;;;6185794;28;20081;-79
2022/06/04 15:12:30;;;;;;;3.70;3.50;;;;;;;;;;6203492;28;20413;-80
2022/06/04 15:15:43;;;;;;;3.97;3.67;;;;;;;;;;6205122;28;20053;-82
2022/06/04 15:19:10;;;;;;;4.25;3.92;;;;;;;;;;6219921;28;20042;-82
2022/06/04 15:22:42;;;;;;;3.92;3.63;;;;;;;;;;6213541;28;20057;-82
2022/06/04 15:26:03;;;;;;;4.13;3.63;;;;;;;;;;6182215;28;20062;-81
2022/06/04 15:36:48;;;;;;;4.03;3.67;;;;;;;;;;6191487;28;20042;-83
2022/06/04 15:40:07;;;;;;;4.18;3.78;;;;;;;;;;6200311;28;20050;-81
2022/06/04 15:43:26;;;;;;;4.15;3.85;;;;;;;;;;6209869;28;20042;-82
2022/06/04 15:46:52;;;;;;;5.18;4.78;;;;;;;;;;6155521;28;20130;-81
2022/06/04 15:56:41;;;;;;;4.80;3.95;;;;;;;;;;6205022;28;20037;-79
2022/06/04 15:59:53;;;;;;;4.97;4.00;;;;;;;;;;6184540;28;20047;-82
2022/06/04 16:02:56;;;;;;;5.07;4.68;;;;;;;;;;6195846;28;20116;-82
2022/06/04 16:06:22;;;;;;;5.20;4.70;;;;;;;;;;6200040;28;20038;-79
2022/06/04 16:09:28;;;;;;;4.40;4.10;;;;;;;;;;6193503;28;20046;-81
2022/06/04 16:12:47;;;;;;;5.47;5.00;;;;;;;;;;6162947;28;20046;-80
2022/06/04 16:16:17;;;;;;;5.33;4.93;;;;;;;;;;6179897;28;20157;-80
2022/06/04 16:19:53;;;;;;;4.50;4.20;;;;;;;;;;6197417;28;20049;-81
2022/06/04 16:23:19;;;;;;;6.20;5.32;;;;;;;;;;6194499;28;20064;-82
2022/06/04 16:26:33;;;;;;;5.60;4.90;;;;;;;;;;6175444;28;20150;-83
2022/06/04 16:29:50;;;;;;;4.57;4.28;;;;;;;;;;6188304;28;20168;-81
2022/06/04 16:33:23;;;;;;;4.30;4.00;;;;;;;;;;6204563;28;20496;-81
2022/06/04 16:36:42;;;;;;;;;;;;;;;;;;6202409;28;20049;-83
2022/06/04 16:39:48;;;;;;;4.82;4.35;;;;;;;;;;6196044;28;19926;-82
2022/06/04 16:42:55;;;;;;;4.75;4.35;;;;;;;;;;6184263;28;20045;-82
2022/06/04 16:46:00;;;;;;;4.53;4.13;;;;;;;;;;6196489;28;20081;-81
2022/06/04 16:52:36;;;;;;;4.95;4.55;;;;;;;;;;6194987;28;20035;-82
2022/06/04 16:55:38;;;;;;;5.00;4.50;;;;;;;;;;6200442;28;20049;-82
2022/06/04 16:58:48;;;;;;;4.38;4.07;;;;;;;;;;6213160;28;20045;-81
2022/06/04 17:02:06;;;;;;;5.30;4.40;;;;;;;;;;6216518;28;20084;-84
2022/06/04 17:05:44;;;;;;;4.30;4.00;;;;;;;;;;6208175;28;20053;-78
2022/06/04 17:09:17;;;;;;;5.00;4.55;;;;;;;;;;6202104;28;20168;-79
2022/06/04 17:12:21;;;;;;;;;;;;;;;;;;6208231;28;20179;-78
2022/06/04 17:15:32;;;;;;;5.07;4.68;;;;;;;;;;6196999;28;20056;-79
2022/06/04 17:18:57;;;;;;;5.28;4.80;;;;;;;;;;6211072;28;20049;-79
2022/06/04 17:22:31;;;;;;;5.28;4.78;;;;;;;;;;6207046;28;20160;-79
2022/06/04 17:25:50;;;;;;;5.05;4.65;;;;;;;;;;6215175;28;20054;-79
2022/06/04 17:29:02;;;;;;;5.03;4.57;;;;;;;;;;6214679;28;20046;-80
2022/06/04 17:32:07;;;;;;;5.20;4.32;;;;;;;;;;6215666;28;20042;-77
2022/06/04 17:35:25;;;;;;;5.07;4.57;;;;;;;;;;6210102;28;20073;-77
2022/06/04 17:39:25;;;;;;;4.72;4.40;;;;;;;;;;6215180;28;20046;-78
2022/06/04 17:42:30;;;;;;;5.30;4.80;;;;;;;;;;6181955;28;20061;-77
2022/06/04 17:45:31;;;;;;;5.20;4.80;;;;;;;;;;6180331;28;20447;-78
2022/06/04 17:48:33;;;;;;;5.00;4.50;;;;;;;;;;6180876;28;20043;-78
2022/06/04 17:51:35;;;;;;;4.90;4.55;;;;;;;;;;6211532;28;20421;-77
2022/06/04 17:54:37;;;;;;;4.55;4.22;;;;;;;;;;6191364;28;20932;-77
2022/06/04 17:57:51;;;;;;;4.60;4.30;;;;;;;;;;6218916;28;20371;-78
2022/06/04 18:00:53;;;;;;;8.32;5.70;;;;;;;;;;6187884;28;20046;-79
2022/06/04 18:03:55;;;;;;;7.20;5.68;;;;;;;;;;6195549;28;20058;-79
2022/06/04 18:06:56;;;;;;;7.00;4.57;;;;;;;;;;6190114;28;20073;-79
2022/06/04 18:09:58;;;;;;;5.22;4.72;;;;;;;;;;6194483;28;20100;-78
2022/06/04 18:13:00;;;;;;;5.35;4.90;;;;;;;;;;6191220;28;20122;-78
2022/06/04 18:16:04;;;;;;;5.38;4.88;;;;;;;;;;6216512;28;20180;-78
2022/06/04 18:19:06;;;;;;;5.35;4.95;;;;;;;;;;6194186;28;20039;-80
2022/06/04 18:22:08;;;;;;;5.57;5.07;;;;;;;;;;6185506;28;20399;-79
2022/06/04 18:25:12;;;;;;;6.50;4.57;;;;;;;;;;6183546;28;20070;-79
2022/06/04 18:28:15;;;;;;;4.90;4.50;;;;;;;;;;6209716;28;20052;-78
2022/06/04 18:31:20;;;;;;;5.13;4.73;;;;;;;;;;6200724;28;20663;-79
2022/06/04 18:34:22;;;;;;;5.32;4.80;;;;;;;;;;6203737;28;20049;-79
2022/06/04 18:37:23;;;;;;;5.28;4.88;;;;;;;;;;6208301;28;20101;-79
2022/06/04 18:40:27;;;;;;;5.03;4.63;;;;;;;;;;6209523;28;20060;-79
2022/06/04 18:56:52;;;;;;;6.53;5.93;;;;;;;;;;6192867;28;20066;-79
2022/06/04 18:59:54;;;;;;;7.15;6.45;;;;;;;;;;6176376;28;20129;-79
2022/06/04 19:02:56;;;;;;;6.43;5.93;;;;;;;;;;6189735;28;20048;-79
2022/06/04 19:05:58;;;;;;;7.85;7.15;;;;;;;;;;6206986;28;20176;-78
2022/06/04 19:09:02;;;;;;;7.80;7.10;;;;;;;;;;6218044;28;20495;-79
2022/06/04 19:15:25;;;;;;;8.05;6.93;;;;;;;;;;6195107;28;20503;-79
2022/06/04 19:18:26;;;;;;;6.70;6.10;;;;;;;;;;6187381;28;20046;-79
2022/06/04 19:24:52;;;;;;;6.55;5.90;;;;;;;;;;6210735;28;20100;-78
2022/06/04 19:27:54;;;;;;;6.72;6.13;;;;;;;;;;6218552;28;20129;-81
2022/06/04 19:30:55;;;;;;;6.78;6.05;;;;;;;;;;6213887;28;20072;-78
2022/06/04 19:33:58;;;;;;;6.10;5.60;;;;;;;;;;6219438;28;20553;-79
2022/06/04 19:37:00;;;;;;;7.35;6.60;;;;;;;;;;6215268;28;20054;-80
2022/06/04 19:40:03;;;;;;;7.13;6.53;;;;;;;;;;6217346;28;20076;-79
2022/06/04 19:43:06;;;;;;;8.18;7.38;;;;;;;;;;6215038;28;20043;-80
2022/06/04 19:46:14;;;;;;;9.68;6.93;;;;;;;;;;6218632;28;20057;-81
2022/06/04 19:49:18;;;;;;;7.82;7.13;;;;;;;;;;6207473;28;20184;-80
2022/06/04 19:52:26;;;;;;;7.70;6.90;;;;;;;;;;6203184;28;20054;-79
2022/06/04 19:55:28;;;;;;;7.75;7.00;;;;;;;;;;6200084;28;20049;-79
2022/06/04 19:58:29;;;;;;;7.10;6.50;;;;;;;;;;6203255;28;20496;-79